Time;durP1;ratioP1;P1;durP2;ratioP2;P2;SDS_P1;SDS_P2;PMS_P1;PMS_P2;Temp;Humidity;BMP_temperature;BMP_pressure;BME280_temperature;BME280_humidity;BME280_pressure;Samples;Min_cycle;Max_cycle;Signal;HPM_P1;HPM_P2
2021/01/10 00:00:31;;;;;;;284.57;257.57;;;1.50;99.90;;;;;;5042629;28;20839;-82
2021/01/10 00:02:58;;;;;;;281.35;255.75;;;1.50;99.90;;;;;;5052860;28;20540;-83
2021/01/10 00:05:32;;;;;;;288.17;256.90;;;1.40;99.90;;;;;;5043913;28;20601;-83
2021/01/10 00:07:59;;;;;;;286.47;255.20;;;1.40;99.90;;;;;;5039222;28;20562;-83
2021/01/10 00:10:30;;;;;;;297.67;256.47;;;1.50;99.90;;;;;;5053282;28;20463;-83
2021/01/10 00:12:57;;;;;;;295.23;263.90;;;1.40;99.90;;;;;;5047426;28;20452;-82
2021/01/10 00:15:24;;;;;;;296.37;264.97;;;1.40;99.90;;;;;;5033032;28;20456;-82
2021/01/10 00:17:52;;;;;;;301.37;268.73;;;1.40;99.90;;;;;;5035513;28;20463;-83
2021/01/10 00:20:20;;;;;;;298.23;266.63;;;1.40;99.90;;;;;;5053341;28;20447;-83
2021/01/10 00:22:52;;;;;;;293.30;264.07;;;1.40;99.90;;;;;;5050015;28;20474;-83
2021/01/10 00:25:20;;;;;;;287.93;257.23;;;1.40;99.90;;;;;;5032880;28;20817;-82
2021/01/10 00:27:48;;;;;;;295.40;264.53;;;1.30;99.90;;;;;;5034308;28;20487;-83
2021/01/10 00:30:18;;;;;;;305.37;270.80;;;1.30;99.90;;;;;;5052881;28;20451;-83
2021/01/10 00:33:03;;;;;;;302.33;270.17;;;1.20;99.90;;;;;;5050419;28;20505;-83
2021/01/10 00:35:30;;;;;;;289.08;259.17;;;1.20;99.90;;;;;;5032072;28;20194;-83
2021/01/10 00:37:57;;;;;;;285.53;257.67;;;1.00;99.90;;;;;;5034587;28;20650;-83
2021/01/10 00:40:25;;;;;;;283.20;252.30;;;0.90;99.90;;;;;;5052904;28;20451;-82
2021/01/10 00:42:54;;;;;;;298.80;267.50;;;0.90;99.90;;;;;;5051567;28;20859;-83
2021/01/10 00:45:24;;;;;;;284.43;257.23;;;0.90;99.90;;;;;;5032803;28;20460;-82
2021/01/10 00:47:57;;;;;;;341.50;276.33;;;0.80;99.90;;;;;;5031686;28;20519;-83
2021/01/10 00:50:24;;;;;;;322.67;280.27;;;1.00;99.90;;;;;;5052587;28;21018;-82
2021/01/10 00:52:50;;;;;;;343.03;284.77;;;1.00;99.90;;;;;;5050716;28;20546;-82
2021/01/10 00:55:17;;;;;;;314.03;279.87;;;1.00;99.90;;;;;;5032547;28;20498;-82
2021/01/10 00:57:43;;;;;;;314.50;283.50;;;1.00;99.90;;;;;;5036651;28;20455;-82
2021/01/10 01:00:13;;;;;;;310.57;276.87;;;1.00;99.90;;;;;;5052683;28;20947;-82
2021/01/10 01:02:42;;;;;;;389.90;294.13;;;1.00;99.90;;;;;;5047422;28;20456;-83
2021/01/10 01:05:10;;;;;;;354.90;285.10;;;1.10;99.90;;;;;;5032679;28;20452;-83
2021/01/10 01:07:37;;;;;;;344.93;291.23;;;1.00;99.90;;;;;;5034920;28;20515;-82
2021/01/10 01:10:10;;;;;;;326.97;280.10;;;1.00;99.90;;;;;;5052526;28;20552;-82
2021/01/10 01:12:36;;;;;;;362.10;295.37;;;0.90;99.90;;;;;;5041369;28;20464;-82
2021/01/10 01:15:05;;;;;;;346.53;298.70;;;0.90;99.90;;;;;;5032395;28;20468;-82
2021/01/10 01:17:32;;;;;;;366.13;292.73;;;0.80;99.90;;;;;;5040464;28;20452;-82
2021/01/10 01:19:58;;;;;;;323.80;285.97;;;0.80;99.90;;;;;;5052264;28;20480;-82
2021/01/10 01:22:28;;;;;;;299.77;271.73;;;0.90;99.90;;;;;;5044653;28;20513;-82
2021/01/10 01:24:55;;;;;;;288.70;261.80;;;0.90;99.90;;;;;;5032438;28;20510;-82
2021/01/10 01:27:26;;;;;;;312.23;281.83;;;1.00;99.90;;;;;;5037473;28;20472;-81
2021/01/10 01:29:56;;;;;;;278.60;254.23;;;0.90;99.90;;;;;;5049983;28;20205;-81
2021/01/10 01:32:23;;;;;;;288.13;259.80;;;0.90;99.90;;;;;;5031295;28;20464;-82
2021/01/10 01:34:49;;;;;;;295.70;266.42;;;0.90;99.90;;;;;;5033182;28;20456;-81
2021/01/10 01:37:16;;;;;;;307.90;274.35;;;0.90;99.90;;;;;;5052156;28;20674;-82
2021/01/10 01:39:43;;;;;;;300.60;268.73;;;0.90;99.90;;;;;;5052295;28;20197;-81
2021/01/10 01:42:14;;;;;;;303.83;274.77;;;1.00;99.90;;;;;;5051392;28;20451;-81
2021/01/10 01:44:44;;;;;;;310.92;278.85;;;0.90;99.90;;;;;;5052164;28;20463;-82
2021/01/10 01:47:15;;;;;;;305.63;278.52;;;1.00;99.90;;;;;;5032884;28;20220;-82
2021/01/10 01:49:42;;;;;;;307.80;277.70;;;1.00;99.90;;;;;;5035794;28;20280;-81
2021/01/10 01:52:09;;;;;;;305.33;278.77;;;0.90;99.90;;;;;;5054314;28;20197;-82
2021/01/10 01:54:35;;;;;;;303.93;276.77;;;0.90;99.90;;;;;;5052616;28;20453;-82
2021/01/10 01:57:03;;;;;;;305.77;279.97;;;0.90;99.90;;;;;;5035413;28;20515;-82
2021/01/10 01:59:32;;;;;;;293.57;269.47;;;0.90;99.90;;;;;;5036452;28;20971;-81
2021/01/10 02:02:00;;;;;;;298.20;274.70;;;0.90;99.90;;;;;;5054373;28;20455;-82
2021/01/10 02:04:30;;;;;;;299.38;275.77;;;0.90;99.90;;;;;;5055096;28;20513;-81
2021/01/10 02:07:03;;;;;;;304.30;279.03;;;0.90;99.90;;;;;;5035525;28;20198;-82
2021/01/10 02:09:32;;;;;;;316.52;291.23;;;0.80;99.90;;;;;;5035422;28;20829;-81
2021/01/10 02:12:08;;;;;;;313.77;286.00;;;0.80;99.90;;;;;;5055118;28;20200;-82
2021/01/10 02:14:42;;;;;;;319.25;290.35;;;0.70;99.90;;;;;;5054591;28;20201;-82
2021/01/10 02:17:11;;;;;;;313.42;288.48;;;0.70;99.90;;;;;;5034227;28;20198;-83
2021/01/10 02:19:50;;;;;;;313.77;288.13;;;0.70;99.90;;;;;;5035257;28;20194;-82
2021/01/10 02:22:25;;;;;;;312.08;282.48;;;0.60;99.90;;;;;;5055144;28;20189;-82
2021/01/10 02:25:09;;;;;;;315.50;286.50;;;0.60;99.90;;;;;;5053239;28;20265;-83
2021/01/10 02:27:36;;;;;;;310.10;285.53;;;0.70;99.90;;;;;;5035162;28;20205;-81
2021/01/10 02:30:03;;;;;;;316.17;290.38;;;0.50;99.90;;;;;;5049177;28;20459;-82
2021/01/10 02:32:35;;;;;;;328.60;301.40;;;0.50;99.90;;;;;;5054027;28;20189;-82
2021/01/10 02:35:03;;;;;;;323.23;291.05;;;0.60;99.90;;;;;;5039643;28;20205;-82
2021/01/10 02:38:17;;;;;;;315.50;290.42;;;0.50;99.90;;;;;;5034939;28;20189;-82
2021/01/10 02:41:05;;;;;;;313.10;289.98;;;0.30;99.90;;;;;;4993215;28;20218;-83
2021/01/10 02:43:34;;;;;;;329.02;300.08;;;0.40;99.90;;;;;;5015118;28;20206;-82
2021/01/10 02:46:06;;;;;;;331.63;303.37;;;0.40;99.90;;;;;;5053445;28;20243;-82
2021/01/10 02:48:34;;;;;;;333.23;303.92;;;0.30;99.90;;;;;;5053186;28;20845;-82
2021/01/10 02:51:00;;;;;;;331.70;305.60;;;0.40;99.90;;;;;;5034638;28;20276;-83
2021/01/10 02:53:27;;;;;;;331.17;304.42;;;0.40;99.90;;;;;;5034883;28;20255;-83
2021/01/10 02:55:57;;;;;;;329.08;300.48;;;0.60;99.90;;;;;;5034346;28;20225;-82
2021/01/10 02:58:27;;;;;;;325.45;298.48;;;0.50;99.90;;;;;;4982446;28;20542;-82
2021/01/10 03:01:02;;;;;;;318.83;293.92;;;0.60;99.90;;;;;;5033845;28;20312;-83
2021/01/10 03:03:35;;;;;;;327.47;297.13;;;0.70;99.90;;;;;;5014698;28;20728;-83
2021/01/10 03:06:07;;;;;;;320.87;291.17;;;0.60;99.90;;;;;;5032025;28;20448;-83
2021/01/10 03:08:35;;;;;;;320.73;291.83;;;0.60;99.90;;;;;;5054224;28;20853;-83
2021/01/10 03:11:02;;;;;;;317.77;291.52;;;0.70;99.90;;;;;;5046059;28;20201;-82
2021/01/10 03:13:33;;;;;;;319.88;292.00;;;0.70;99.90;;;;;;5034195;28;20249;-83
2021/01/10 03:16:03;;;;;;;310.80;284.30;;;0.60;99.90;;;;;;5040259;28;20193;-82
2021/01/10 03:18:31;;;;;;;304.90;280.85;;;0.70;99.90;;;;;;5053626;28;20459;-81
2021/01/10 03:21:01;;;;;;;318.55;290.27;;;0.60;99.90;;;;;;5014229;28;20195;-83
2021/01/10 03:23:31;;;;;;;310.58;287.48;;;0.60;99.90;;;;;;5017833;28;20608;-83
2021/01/10 03:26:05;;;;;;;315.23;290.37;;;0.60;99.90;;;;;;5034392;28;20236;-82
2021/01/10 03:28:33;;;;;;;314.20;286.85;;;0.50;99.90;;;;;;5041880;28;20486;-82
2021/01/10 03:31:04;;;;;;;315.35;290.38;;;0.30;99.90;;;;;;5037143;28;20181;-81
2021/01/10 03:33:53;;;;;;;314.07;288.83;;;0.10;99.90;;;;;;5041554;28;20209;-82
2021/01/10 03:36:23;;;;;;;310.83;289.90;;;-0.10;99.90;;;;;;5033689;28;20475;-80
2021/01/10 03:38:58;;;;;;;327.23;301.98;;;-0.10;99.90;;;;;;5031494;28;20272;-82
2021/01/10 03:41:26;;;;;;;324.45;298.85;;;-0.10;99.90;;;;;;5033600;28;20231;-82
2021/01/10 03:44:01;;;;;;;341.90;315.90;;;-0.20;99.90;;;;;;5039268;28;20192;-82
2021/01/10 03:46:33;;;;;;;327.95;300.52;;;-0.10;99.90;;;;;;5052342;28;20193;-82
2021/01/10 03:48:59;;;;;;;331.85;304.50;;;-0.20;99.90;;;;;;5046980;28;20540;-83
2021/01/10 03:51:29;;;;;;;320.85;295.92;;;-0.30;99.90;;;;;;5035299;28;20567;-82
2021/01/10 03:53:56;;;;;;;317.88;292.20;;;-0.30;99.90;;;;;;5036327;28;20225;-84
2021/01/10 03:56:32;;;;;;;;;;;;;;;;;;;;;
2021/01/10 03:58:59;;;;;;;310.80;284.90;;;-0.60;99.90;;;;;;5032985;28;20197;-82
2021/01/10 04:01:30;;;;;;;309.25;281.60;;;-1.00;99.90;;;;;;5052189;28;20189;-81
2021/01/10 04:03:58;;;;;;;289.77;264.83;;;-0.90;99.90;;;;;;5053235;28;20189;-82
2021/01/10 04:06:30;;;;;;;286.60;260.42;;;-1.00;99.90;;;;;;5034073;28;20200;-82
2021/01/10 04:09:04;;;;;;;274.23;248.98;;;-1.10;99.90;;;;;;5052890;28;20224;-81
2021/01/10 04:11:33;;;;;;;298.73;272.90;;;-1.30;99.90;;;;;;5052308;28;20879;-82
2021/01/10 04:14:01;;;;;;;293.75;266.98;;;-1.20;99.90;;;;;;5045681;28;20190;-82
2021/01/10 04:16:32;;;;;;;285.50;260.27;;;-1.20;99.90;;;;;;5032133;28;20197;-82
2021/01/10 04:19:02;;;;;;;298.33;273.75;;;-1.10;99.90;;;;;;5039071;28;20276;-82
2021/01/10 04:21:38;;;;;;;313.05;286.10;;;-0.80;99.90;;;;;;5052939;28;20212;-82
2021/01/10 04:24:05;;;;;;;307.70;279.08;;;-0.90;99.90;;;;;;5045916;28;20706;-82
2021/01/10 04:26:37;;;;;;;300.75;276.23;;;-0.80;99.90;;;;;;5032984;28;20202;-82
2021/01/10 04:29:05;;;;;;;312.98;285.05;;;-0.70;99.90;;;;;;5034827;28;20217;-82
2021/01/10 04:31:33;;;;;;;307.95;282.45;;;-0.70;99.90;;;;;;5031877;28;20244;-82
2021/01/10 04:34:00;;;;;;;311.35;286.40;;;-0.50;99.90;;;;;;5032420;28;20670;-82
2021/01/10 04:36:30;;;;;;;324.02;295.73;;;-0.60;99.90;;;;;;5032909;28;20650;-82
2021/01/10 04:39:01;;;;;;;316.90;290.17;;;-0.50;99.90;;;;;;5036366;28;20208;-82
2021/01/10 04:41:28;;;;;;;326.75;298.65;;;-0.40;99.90;;;;;;5036466;28;20569;-84
2021/01/10 04:43:56;;;;;;;335.95;305.55;;;-0.30;99.90;;;;;;5039521;28;20190;-82
2021/01/10 04:46:24;;;;;;;315.33;291.92;;;-0.20;99.90;;;;;;5034622;28;20221;-82
2021/01/10 04:48:51;;;;;;;326.63;299.67;;;-0.30;99.90;;;;;;5032665;28;20225;-82
2021/01/10 04:51:21;;;;;;;317.67;290.48;;;-0.30;99.90;;;;;;5047474;28;20710;-82
2021/01/10 04:53:50;;;;;;;315.60;288.55;;;-0.20;99.90;;;;;;5052601;28;20581;-82
2021/01/10 04:56:17;;;;;;;310.55;284.08;;;-0.30;99.90;;;;;;5037854;28;20681;-82
2021/01/10 04:58:51;;;;;;;308.08;281.58;;;-0.20;99.90;;;;;;5032673;28;20209;-82
2021/01/10 05:01:20;;;;;;;321.80;292.20;;;-0.20;99.90;;;;;;5043705;28;20263;-78
2021/01/10 05:03:49;;;;;;;320.90;290.30;;;-0.20;99.90;;;;;;5052445;28;20232;-83
2021/01/10 05:06:16;;;;;;;327.52;294.33;;;-0.20;99.90;;;;;;5046556;28;20225;-82
2021/01/10 05:08:48;;;;;;;315.02;287.08;;;-0.40;99.90;;;;;;5039879;28;20225;-83
2021/01/10 05:11:19;;;;;;;309.65;280.73;;;-0.40;99.90;;;;;;5049529;28;20305;-83
2021/01/10 05:13:47;;;;;;;318.23;285.90;;;-0.50;99.90;;;;;;5038290;28;20275;-82
2021/01/10 05:16:23;;;;;;;352.20;286.85;;;-0.60;99.90;;;;;;5031487;28;20702;-83
2021/01/10 05:18:54;;;;;;;311.42;277.75;;;-0.60;99.90;;;;;;5047294;28;20197;-82
2021/01/10 05:21:22;;;;;;;470.98;295.27;;;-0.60;99.90;;;;;;5044249;28;20197;-81
2021/01/10 05:23:50;;;;;;;417.85;285.63;;;-0.60;99.90;;;;;;5048102;28;20535;-82
2021/01/10 05:26:20;;;;;;;420.70;275.48;;;-0.70;99.90;;;;;;5052094;28;20208;-82
2021/01/10 05:28:46;;;;;;;495.25;286.35;;;-0.70;99.90;;;;;;5053015;28;20217;-83
2021/01/10 05:31:35;;;;;;;420.13;278.75;;;-0.80;99.90;;;;;;5052795;28;20208;-82
2021/01/10 05:34:03;;;;;;;294.33;261.98;;;-0.90;99.90;;;;;;5050686;28;20205;-81
2021/01/10 05:36:31;;;;;;;280.17;251.13;;;-1.00;99.90;;;;;;5053755;28;20204;-82
2021/01/10 05:39:13;;;;;;;350.73;272.20;;;-1.00;99.90;;;;;;5036177;28;20292;-82
2021/01/10 05:41:43;;;;;;;321.92;262.48;;;-1.00;99.90;;;;;;5040675;28;20186;-81
2021/01/10 05:44:10;;;;;;;282.17;251.55;;;-1.20;99.90;;;;;;5013437;28;20204;-81
2021/01/10 05:46:36;;;;;;;402.98;275.95;;;-1.20;99.90;;;;;;5037720;28;20233;-82
2021/01/10 05:49:04;;;;;;;473.80;273.63;;;-1.20;99.90;;;;;;5040321;28;20937;-82
2021/01/10 05:51:33;;;;;;;321.98;252.90;;;-1.20;99.90;;;;;;5044634;28;20193;-83
2021/01/10 05:54:00;;;;;;;333.45;257.45;;;-1.10;99.90;;;;;;5046563;28;20182;-82
2021/01/10 05:56:27;;;;;;;355.05;260.50;;;-1.20;99.90;;;;;;5051634;28;20275;-85
2021/01/10 05:58:55;;;;;;;400.05;263.85;;;-1.20;99.90;;;;;;5045825;28;20200;-82
2021/01/10 06:01:24;;;;;;;303.08;255.18;;;-1.30;99.90;;;;;;5036573;28;20273;-82
2021/01/10 06:03:51;;;;;;;419.40;261.67;;;-1.30;99.90;;;;;;5044742;28;20197;-82
2021/01/10 06:06:19;;;;;;;288.88;247.93;;;-1.30;99.90;;;;;;5045989;28;20734;-81
2021/01/10 06:08:46;;;;;;;630.97;292.45;;;-1.30;99.90;;;;;;5040741;28;20228;-82
2021/01/10 06:11:24;;;;;;;521.53;284.83;;;-1.30;99.90;;;;;;5049311;28;20209;-82
2021/01/10 06:13:58;;;;;;;448.40;280.00;;;-1.30;99.90;;;;;;5045602;28;20197;-82
2021/01/10 06:16:27;;;;;;;396.17;276.52;;;-1.20;99.90;;;;;;5044750;28;20663;-83
2021/01/10 06:18:56;;;;;;;462.02;289.73;;;-1.30;99.90;;;;;;5048862;28;20619;-82
2021/01/10 06:21:28;;;;;;;552.08;290.90;;;-1.30;99.90;;;;;;5055281;28;20203;-82
2021/01/10 06:23:57;;;;;;;393.75;273.95;;;-1.20;99.90;;;;;;5049826;28;20196;-82
2021/01/10 06:26:25;;;;;;;316.30;269.92;;;-1.20;99.90;;;;;;5049612;28;20208;-82
2021/01/10 06:28:57;;;;;;;449.25;289.13;;;-1.20;99.90;;;;;;5054518;28;20368;-82
2021/01/10 06:31:29;;;;;;;300.48;268.00;;;-1.20;99.90;;;;;;5051298;28;20201;-83
2021/01/10 06:33:57;;;;;;;295.13;265.30;;;-1.20;99.90;;;;;;5036050;28;20193;-81
2021/01/10 06:36:26;;;;;;;459.77;282.63;;;-1.20;99.90;;;;;;5049458;28;20228;-80
2021/01/10 06:39:04;;;;;;;604.83;300.85;;;-1.00;99.90;;;;;;5035792;28;20187;-82
2021/01/10 06:42:06;;;;;;;324.38;267.38;;;-1.10;99.90;;;;;;5033531;28;20196;-82
2021/01/10 06:44:47;;;;;;;333.90;282.02;;;-1.10;99.90;;;;;;5022646;28;20707;-84
2021/01/10 06:47:23;;;;;;;413.27;295.25;;;-1.10;99.90;;;;;;5040028;28;20201;-81
2021/01/10 06:49:53;;;;;;;326.42;292.35;;;-1.00;99.90;;;;;;5036297;28;20590;-82
2021/01/10 06:52:24;;;;;;;306.88;277.85;;;-1.00;99.90;;;;;;5039624;28;20194;-80
2021/01/10 06:54:53;;;;;;;342.27;276.20;;;-0.90;99.90;;;;;;5034499;28;20259;-82
2021/01/10 06:57:20;;;;;;;299.48;270.52;;;-1.00;99.90;;;;;;5052019;28;20731;-84
2021/01/10 06:59:57;;;;;;;295.10;268.00;;;-1.00;99.90;;;;;;5036308;28;20328;-84
2021/01/10 07:02:24;;;;;;;295.25;269.33;;;-0.90;99.90;;;;;;5032377;28;20189;-83
2021/01/10 07:05:01;;;;;;;311.20;282.45;;;-0.90;99.90;;;;;;5033961;28;20300;-83
2021/01/10 07:07:32;;;;;;;304.08;276.80;;;-0.90;99.90;;;;;;5030251;28;20555;-83
2021/01/10 07:09:59;;;;;;;315.70;287.38;;;-0.70;99.90;;;;;;5034057;28;20653;-82
2021/01/10 07:12:25;;;;;;;310.08;281.67;;;-0.70;99.90;;;;;;5033695;28;20267;-83
2021/01/10 07:14:56;;;;;;;321.15;289.60;;;-0.60;99.90;;;;;;5034161;28;20220;-84
2021/01/10 07:17:23;;;;;;;316.90;287.90;;;-0.70;99.90;;;;;;5032322;28;20202;-84
2021/01/10 07:19:51;;;;;;;321.23;290.98;;;-0.60;99.90;;;;;;5033415;28;20194;-83
2021/01/10 07:22:29;;;;;;;320.95;291.70;;;-0.50;99.90;;;;;;5033295;28;20190;-83
2021/01/10 07:24:57;;;;;;;324.35;294.70;;;-0.40;99.90;;;;;;5031968;28;20243;-84
2021/01/10 07:27:34;;;;;;;332.52;298.90;;;-0.30;99.90;;;;;;5033095;28;20193;-84
2021/01/10 07:30:22;;;;;;;320.55;290.50;;;-0.40;99.90;;;;;;5033362;28;20288;-83
2021/01/10 07:32:50;;;;;;;324.92;295.10;;;-0.30;99.90;;;;;;5032681;28;20186;-83
2021/01/10 07:35:17;;;;;;;329.13;297.35;;;-0.30;99.90;;;;;;5033842;28;20221;-82
2021/01/10 07:37:45;;;;;;;341.05;306.58;;;-0.30;99.90;;;;;;5033482;28;20628;-82
2021/01/10 07:40:24;;;;;;;322.73;293.75;;;-0.10;99.90;;;;;;5033140;28;20190;-82
2021/01/10 07:43:01;;;;;;;286.40;262.15;;;-0.10;99.90;;;;;;5033435;28;20190;-80
2021/01/10 07:45:38;;;;;;;314.17;283.95;;;-0.10;99.90;;;;;;5033056;28;20532;-80
2021/01/10 07:48:06;;;;;;;330.45;297.65;;;-0.10;99.90;;;;;;5033079;28;20249;-82
2021/01/10 07:50:39;;;;;;;332.30;299.30;;;-0.10;99.90;;;;;;5032947;28;20214;-81
2021/01/10 07:56:24;;;;;;;;;;;;;;;;;;;;;
2021/01/10 07:59:25;;;;;;;325.77;297.05;;;0.00;99.90;;;;;;5039667;28;20193;-82
2021/01/10 08:02:10;;;;;;;321.27;291.77;;;0.00;99.90;;;;;;5051897;28;20199;-82
2021/01/10 08:08:07;;;;;;;327.08;295.08;;;0.10;99.90;;;;;;4992331;28;20223;-81
2021/01/10 08:10:52;;;;;;;320.23;287.38;;;0.10;99.90;;;;;;5031473;28;20221;-81
2021/01/10 08:14:03;;;;;;;320.35;288.73;;;0.20;99.90;;;;;;5012087;28;20236;-82
2021/01/10 08:16:31;;;;;;;330.83;300.30;;;0.20;99.90;;;;;;5033119;28;20196;-81
2021/01/10 08:19:03;;;;;;;332.63;300.92;;;0.20;99.90;;;;;;5034552;28;20188;-80
2021/01/10 08:21:32;;;;;;;338.88;302.45;;;0.40;99.90;;;;;;5040485;28;20295;-80
2021/01/10 08:23:58;;;;;;;345.75;312.35;;;0.30;99.90;;;;;;5031590;28;20281;-80
2021/01/10 08:26:25;;;;;;;326.42;294.95;;;0.40;99.90;;;;;;5031553;28;20288;-80
2021/01/10 08:28:53;;;;;;;326.65;295.02;;;0.40;99.90;;;;;;5026404;28;20225;-81
2021/01/10 08:31:21;;;;;;;329.60;296.02;;;0.40;99.90;;;;;;5010818;28;20281;-81
2021/01/10 08:33:57;;;;;;;348.77;315.23;;;0.40;99.90;;;;;;5029468;28;20194;-80
2021/01/10 08:36:23;;;;;;;322.60;292.27;;;0.50;99.90;;;;;;5045815;28;20280;-80
2021/01/10 08:38:52;;;;;;;326.15;295.65;;;0.60;99.90;;;;;;5042933;28;20483;-79
2021/01/10 08:41:27;;;;;;;334.17;302.85;;;0.60;99.90;;;;;;5030922;28;20229;-79
2021/01/10 08:43:55;;;;;;;318.60;288.65;;;0.60;99.90;;;;;;5037502;28;20612;-79
2021/01/10 08:46:24;;;;;;;321.07;290.67;;;0.60;99.90;;;;;;5049459;28;20197;-81
2021/01/10 08:48:53;;;;;;;325.83;294.10;;;0.60;99.90;;;;;;5044573;28;20484;-79
2021/01/10 08:51:37;;;;;;;316.87;286.30;;;0.70;99.90;;;;;;5030684;28;20202;-79
2021/01/10 08:54:08;;;;;;;317.87;289.20;;;0.70;99.90;;;;;;5036931;28;20477;-79
2021/01/10 08:56:37;;;;;;;317.80;287.47;;;0.80;99.90;;;;;;5050663;28;21077;-79
2021/01/10 08:59:06;;;;;;;324.63;292.53;;;0.80;99.90;;;;;;5047455;28;20494;-80
2021/01/10 09:01:34;;;;;;;315.65;286.23;;;0.80;99.90;;;;;;5045708;28;20455;-79
2021/01/10 09:04:05;;;;;;;316.98;285.38;;;0.80;99.90;;;;;;5045479;28;20271;-79
2021/01/10 09:06:58;;;;;;;313.33;281.17;;;0.80;99.90;;;;;;5035086;28;20197;-79
2021/01/10 09:09:44;;;;;;;324.67;292.90;;;0.90;99.90;;;;;;5029645;28;20562;-80
2021/01/10 09:12:18;;;;;;;324.37;291.30;;;1.00;99.90;;;;;;5046962;28;20471;-81
2021/01/10 09:14:49;;;;;;;310.67;280.83;;;1.00;99.90;;;;;;5035055;28;20451;-81
2021/01/10 09:17:19;;;;;;;298.07;269.43;;;1.00;99.90;;;;;;5040862;28;20534;-81
2021/01/10 09:19:51;;;;;;;305.75;273.23;;;1.10;99.90;;;;;;5054788;28;20455;-81
2021/01/10 09:22:19;;;;;;;295.67;264.40;;;1.10;99.90;;;;;;5047283;28;20197;-81
2021/01/10 09:24:47;;;;;;;298.60;267.83;;;1.10;99.90;;;;;;5054821;28;20519;-81
2021/01/10 09:27:15;;;;;;;297.30;269.47;;;1.20;99.90;;;;;;5040103;28;20455;-82
2021/01/10 09:29:44;;;;;;;263.17;240.73;;;1.20;99.90;;;;;;5049282;28;20566;-81
2021/01/10 09:32:11;;;;;;;279.10;250.10;;;1.20;99.90;;;;;;5054938;28;20447;-81
2021/01/10 09:34:40;;;;;;;291.97;260.57;;;1.10;99.90;;;;;;5055818;28;20570;-81
2021/01/10 09:37:09;;;;;;;292.03;261.43;;;1.20;99.90;;;;;;5055810;28;20444;-81
2021/01/10 09:39:40;;;;;;;285.47;256.90;;;1.20;99.90;;;;;;5039384;28;20452;-81
2021/01/10 09:42:07;;;;;;;290.77;262.77;;;1.30;99.90;;;;;;5034512;28;20456;-82
2021/01/10 09:44:39;;;;;;;290.87;261.03;;;1.40;99.90;;;;;;5034043;28;20455;-81
2021/01/10 09:47:34;;;;;;;304.17;275.53;;;1.50;99.90;;;;;;5030435;28;20484;-82
2021/01/10 09:50:09;;;;;;;291.60;263.30;;;1.50;99.90;;;;;;5033973;28;20864;-82
2021/01/10 09:52:51;;;;;;;297.63;269.53;;;1.50;99.90;;;;;;5047338;28;20447;-82
2021/01/10 09:55:21;;;;;;;300.47;270.40;;;1.70;99.90;;;;;;5052789;28;20471;-82
2021/01/10 09:57:54;;;;;;;288.77;260.80;;;1.80;99.90;;;;;;5034912;28;20478;-81
2021/01/10 10:00:23;;;;;;;288.97;259.97;;;1.80;99.90;;;;;;5043146;28;20456;-81
2021/01/10 10:02:55;;;;;;;290.23;262.60;;;1.80;99.90;;;;;;5041456;28;20476;-79
2021/01/10 10:05:33;;;;;;;288.40;258.40;;;1.80;99.90;;;;;;5042486;28;20460;-81
2021/01/10 10:08:29;;;;;;;286.50;258.83;;;1.80;99.90;;;;;;5046869;28;20475;-79
2021/01/10 10:11:05;;;;;;;286.60;258.40;;;1.70;99.90;;;;;;5048816;28;20447;-80
2021/01/10 10:13:42;;;;;;;286.47;258.70;;;1.80;99.90;;;;;;5048311;28;20475;-80
2021/01/10 10:16:18;;;;;;;282.90;254.67;;;1.90;99.90;;;;;;5035659;28;20807;-80
2021/01/10 10:18:45;;;;;;;290.83;263.43;;;1.90;99.90;;;;;;5053707;28;20451;-80
2021/01/10 10:21:11;;;;;;;282.57;254.10;;;2.10;99.90;;;;;;5039026;28;20963;-80
2021/01/10 10:23:42;;;;;;;276.33;250.27;;;2.20;99.90;;;;;;5033622;28;20951;-79
2021/01/10 10:26:10;;;;;;;271.80;246.93;;;2.30;99.90;;;;;;5035253;28;20502;-80
2021/01/10 10:29:02;;;;;;;273.50;248.47;;;2.40;99.90;;;;;;5044981;28;20491;-80
2021/01/10 10:31:31;;;;;;;274.83;249.43;;;2.50;99.90;;;;;;5041778;28;20478;-80
2021/01/10 10:33:57;;;;;;;264.67;240.40;;;2.60;99.90;;;;;;5030935;28;20597;-80
2021/01/10 10:36:23;;;;;;;264.83;241.73;;;2.60;99.90;;;;;;5051804;28;20660;-79
2021/01/10 10:38:52;;;;;;;253.13;230.90;;;2.60;99.90;;;;;;5033452;28;20440;-78
2021/01/10 10:41:20;;;;;;;246.80;224.73;;;2.60;99.90;;;;;;5033495;28;20448;-79
2021/01/10 10:43:46;;;;;;;244.40;222.10;;;2.60;99.90;;;;;;5030092;28;20483;-80
2021/01/10 10:46:13;;;;;;;239.17;218.53;;;2.70;99.90;;;;;;5012168;28;20503;-80
2021/01/10 10:48:39;;;;;;;236.07;215.70;;;2.70;99.90;;;;;;5015511;28;20964;-80
2021/01/10 10:51:06;;;;;;;225.30;205.20;;;2.80;99.90;;;;;;5039258;28;20524;-81
2021/01/10 10:53:32;;;;;;;213.00;194.80;;;2.80;99.90;;;;;;5041735;28;20951;-80
2021/01/10 10:55:59;;;;;;;204.30;187.03;;;2.80;99.90;;;;;;5041781;28;20566;-79
2021/01/10 10:58:25;;;;;;;201.73;185.60;;;2.80;99.90;;;;;;5032901;28;21022;-80
2021/01/10 11:00:57;;;;;;;203.67;187.03;;;2.80;99.90;;;;;;5049030;28;20513;-79
2021/01/10 11:03:24;;;;;;;196.77;181.03;;;2.80;99.90;;;;;;5013239;28;20470;-79
2021/01/10 11:05:50;;;;;;;197.53;180.60;;;2.90;99.90;;;;;;5047771;28;20593;-80
2021/01/10 11:08:17;;;;;;;197.57;180.07;;;3.00;99.90;;;;;;5047573;28;20512;-80
2021/01/10 11:10:45;;;;;;;194.77;178.83;;;3.10;99.90;;;;;;5048300;28;20455;-80
2021/01/10 11:13:12;;;;;;;190.20;173.70;;;3.20;99.90;;;;;;5035715;28;20539;-80
2021/01/10 11:15:41;;;;;;;179.97;165.90;;;3.40;99.90;;;;;;5033806;28;20452;-80
2021/01/10 11:18:09;;;;;;;182.67;165.93;;;3.40;99.90;;;;;;5044195;28;20538;-80
2021/01/10 11:20:49;;;;;;;172.07;157.43;;;3.60;99.90;;;;;;5037346;28;20618;-80
2021/01/10 11:23:16;;;;;;;156.60;143.70;;;3.70;99.90;;;;;;5040319;28;20466;-79
2021/01/10 11:25:44;;;;;;;147.87;134.57;;;3.80;99.90;;;;;;5048676;28;20993;-80
2021/01/10 11:28:10;;;;;;;138.00;126.07;;;4.00;99.90;;;;;;5047922;28;20508;-80
2021/01/10 11:30:40;;;;;;;119.70;108.20;;;4.00;99.90;;;;;;5045928;28;20459;-79
2021/01/10 11:33:06;;;;;;;102.93;92.77;;;4.00;99.90;;;;;;5046405;28;20526;-80
2021/01/10 11:35:36;;;;;;;84.07;66.73;;;4.00;99.90;;;;;;5039677;28;20476;-80
2021/01/10 11:38:02;;;;;;;73.90;55.23;;;4.10;99.90;;;;;;5034009;28;20822;-80
2021/01/10 11:40:30;;;;;;;74.10;51.77;;;4.20;99.90;;;;;;5050850;28;20459;-80
2021/01/10 11:43:01;;;;;;;64.57;46.93;;;4.30;99.90;;;;;;5048852;28;20447;-80
2021/01/10 11:45:27;;;;;;;62.03;39.93;;;4.40;99.90;;;;;;5036133;28;20488;-80
2021/01/10 11:47:57;;;;;;;55.17;37.07;;;4.40;99.90;;;;;;5038313;28;20487;-80
2021/01/10 11:50:26;;;;;;;59.53;35.40;;;4.50;99.90;;;;;;5043128;28;20547;-80
2021/01/10 11:52:55;;;;;;;59.20;34.37;;;4.50;99.90;;;;;;5037532;28;20452;-80
2021/01/10 11:55:29;;;;;;;58.90;34.93;;;4.60;99.90;;;;;;5033114;28;20448;-80
2021/01/10 11:57:55;;;;;;;61.00;34.17;;;4.60;99.90;;;;;;5033073;28;20444;-80
2021/01/10 12:00:27;;;;;;;63.33;33.30;;;4.70;99.90;;;;;;5033509;28;20488;-80
2021/01/10 12:02:55;;;;;;;63.90;34.73;;;4.40;96.30;;;;;;5032202;28;20542;-80
2021/01/10 12:05:28;;;;;;;68.27;36.90;;;4.30;95.20;;;;;;5032957;28;20472;-80
2021/01/10 12:07:59;;;;;;;77.17;36.97;;;4.40;97.30;;;;;;5033136;28;20539;-80
2021/01/10 12:10:27;;;;;;;60.97;37.47;;;4.40;97.80;;;;;;5044754;28;20490;-80
2021/01/10 12:12:55;;;;;;;64.50;37.77;;;4.30;97.70;;;;;;5043162;28;20539;-80
2021/01/10 12:15:43;;;;;;;72.80;39.60;;;4.40;99.90;;;;;;5033297;28;20541;-80
2021/01/10 12:18:40;;;;;;;69.57;37.73;;;4.40;99.90;;;;;;4944699;29;20456;-81
2021/01/10 12:21:13;;;;;;;69.03;41.27;;;4.40;99.10;;;;;;5021620;28;20452;-80
2021/01/10 12:23:52;;;;;;;67.10;39.97;;;4.50;98.20;;;;;;5038256;28;20517;-81
2021/01/10 12:26:23;;;;;;;71.57;42.37;;;4.20;96.40;;;;;;5033071;28;20812;-80
2021/01/10 12:28:57;;;;;;;56.70;37.17;;;4.20;97.90;;;;;;5048036;28;20479;-80
2021/01/10 12:31:41;;;;;;;59.87;34.10;;;4.10;96.20;;;;;;5050634;28;20451;-80
2021/01/10 12:34:15;;;;;;;59.03;36.30;;;4.10;95.70;;;;;;4985125;28;20445;-80
2021/01/10 12:36:51;;;;;;;61.43;37.70;;;4.00;97.00;;;;;;5041889;28;20489;-80
2021/01/10 12:39:22;;;;;;;58.23;35.30;;;4.00;96.60;;;;;;5052741;28;20979;-80
2021/01/10 12:41:49;;;;;;;51.90;32.30;;;3.90;96.90;;;;;;5042813;28;20456;-80
2021/01/10 12:44:20;;;;;;;55.73;34.33;;;3.80;98.80;;;;;;5032758;28;20455;-80